createdAt,value
2022-12-14T00:02:18.184Z,3.40
2022-12-14T00:07:20.303Z,3.22
2022-12-14T00:12:22.546Z,4.15
2022-12-14T00:17:24.611Z,3.58
2022-12-14T00:22:26.759Z,4.15
2022-12-14T00:27:28.957Z,3.47
2022-12-14T00:32:31.697Z,4.13
2022-12-14T00:37:33.871Z,4.28
2022-12-14T00:42:36.379Z,3.75
2022-12-14T00:47:40.885Z,3.97
2022-12-14T00:52:43.048Z,3.20
2022-12-14T00:57:45.135Z,3.40
2022-12-14T01:02:47.286Z,4.03
2022-12-14T01:07:49.411Z,3.70
2022-12-14T01:12:51.923Z,4.10
2022-12-14T01:17:54.071Z,3.97
2022-12-14T01:22:56.506Z,3.47
2022-12-14T01:27:58.644Z,3.88
2022-12-14T01:33:00.892Z,4.72
2022-12-14T01:38:03.029Z,4.18
2022-12-14T01:43:15.214Z,4.00
2022-12-14T01:48:17.326Z,3.58
2022-12-14T01:53:23.094Z,4.07
2022-12-14T01:58:26.896Z,4.32
2022-12-14T02:03:43.965Z,4.13
2022-12-14T02:08:48.139Z,4.57
2022-12-14T02:13:50.151Z,4.18
2022-12-14T02:18:52.268Z,5.03
2022-12-14T02:24:25.398Z,3.95
2022-12-14T02:29:45.564Z,4.38
2022-12-14T02:34:59.557Z,3.75
2022-12-14T02:40:33.813Z,3.95
2022-12-14T02:45:48.003Z,3.42
2022-12-14T02:51:09.109Z,3.92
2022-12-14T02:56:18.608Z,4.00
2022-12-14T03:01:25.598Z,3.95
2022-12-14T03:06:27.677Z,4.13
2022-12-14T03:11:56.422Z,4.15
2022-12-14T03:17:23.283Z,3.92
2022-12-14T03:22:52.613Z,3.47
2022-12-14T03:28:04.190Z,3.45
2022-12-14T03:38:36.210Z,2.70
2022-12-14T03:44:07.142Z,3.30
2022-12-14T03:49:27.537Z,3.03
2022-12-14T03:54:53.871Z,3.90
2022-12-14T04:00:07.421Z,4.47
2022-12-14T04:05:21.962Z,4.05
2022-12-14T04:10:47.849Z,4.25
2022-12-14T04:16:10.539Z,3.97
2022-12-14T04:21:25.855Z,4.82
2022-12-14T04:26:34.940Z,4.82
2022-12-14T04:31:40.776Z,4.32
2022-12-14T04:37:10.786Z,4.45
2022-12-14T04:42:16.590Z,4.18
2022-12-14T04:47:20.006Z,4.82
2022-12-14T04:52:30.499Z,4.47
2022-12-14T04:57:50.267Z,5.45
2022-12-14T05:03:13.662Z,5.15
2022-12-14T05:08:18.645Z,4.80
2022-12-14T05:13:22.930Z,5.72
2022-12-14T05:18:25.880Z,5.47
2022-12-14T05:23:28.221Z,5.22
2022-12-14T05:28:30.503Z,5.32
2022-12-14T05:33:32.534Z,5.85
2022-12-14T05:38:34.552Z,6.45
2022-12-14T05:43:36.578Z,5.97
2022-12-14T05:48:39.007Z,7.43
2022-12-14T05:53:41.097Z,6.05
2022-12-14T05:58:43.314Z,6.22
2022-12-14T06:03:45.561Z,6.20
2022-12-14T06:08:48.246Z,6.75
2022-12-14T06:13:50.876Z,5.43
2022-12-14T06:18:55.378Z,6.43
2022-12-14T06:23:58.103Z,7.13
2022-12-14T06:29:00.423Z,6.93
2022-12-14T06:34:03.442Z,7.43
2022-12-14T06:39:12.676Z,6.88
2022-12-14T06:44:14.790Z,7.07
2022-12-14T06:49:17.247Z,6.80
2022-12-14T06:54:19.427Z,6.65
2022-12-14T06:59:21.648Z,6.25
2022-12-14T07:04:24.689Z,6.43
2022-12-14T07:09:26.724Z,5.90
2022-12-14T07:14:28.767Z,6.30
2022-12-14T07:19:30.822Z,6.88
2022-12-14T07:24:32.872Z,7.20
2022-12-14T07:29:35.228Z,6.95
2022-12-14T07:34:37.438Z,6.63
2022-12-14T07:39:39.624Z,6.60
2022-12-14T07:44:41.672Z,6.50
2022-12-14T07:49:44.302Z,6.93
2022-12-14T07:54:46.369Z,6.53
2022-12-14T07:59:54.209Z,6.38
2022-12-14T08:04:59.275Z,6.90
2022-12-14T08:10:01.430Z,7.60
2022-12-14T08:15:05.819Z,8.15
2022-12-14T08:20:08.278Z,8.57
2022-12-14T08:25:10.392Z,7.55
2022-12-14T08:30:13.094Z,7.78
2022-12-14T08:35:15.407Z,7.88
2022-12-14T08:40:17.431Z,8.00
2022-12-14T08:45:19.637Z,7.88
2022-12-14T08:50:21.660Z,8.63
2022-12-14T08:55:28.409Z,7.72
2022-12-14T09:00:33.452Z,8.63
2022-12-14T09:05:35.737Z,8.77
2022-12-14T09:10:37.792Z,9.27
2022-12-14T09:15:39.940Z,8.85
2022-12-14T09:20:43.446Z,8.55
2022-12-14T09:25:46.473Z,8.85
2022-12-14T09:30:48.513Z,9.52
2022-12-14T09:35:50.734Z,9.25
2022-12-14T09:40:58.572Z,9.07
2022-12-14T09:46:24.650Z,8.00
2022-12-14T09:51:34.427Z,9.75
2022-12-14T09:56:38.575Z,8.38
2022-12-14T10:02:33.755Z,9.15
2022-12-14T10:07:59.537Z,9.20
2022-12-14T10:13:26.018Z,8.45
2022-12-14T10:19:07.783Z,8.88
2022-12-14T10:24:17.656Z,7.80
2022-12-14T10:29:51.861Z,7.20
2022-12-14T10:34:54.030Z,8.05
2022-12-14T10:40:43.933Z,8.48
2022-12-14T10:46:06.139Z,7.75
2022-12-14T10:51:13.467Z,8.52
2022-12-14T10:56:36.629Z,7.28
2022-12-14T11:01:38.902Z,7.25
2022-12-14T11:06:41.225Z,7.60
2022-12-14T11:11:45.166Z,8.50
2022-12-14T11:16:47.355Z,5.72
2022-12-14T11:21:52.556Z,5.50
2022-12-14T11:26:59.216Z,5.13
2022-12-14T11:32:01.956Z,3.83
2022-12-14T11:37:33.400Z,3.28
2022-12-14T11:42:37.327Z,2.50
2022-12-14T11:47:39.576Z,1.25
2022-12-14T11:52:42.865Z,1.00
2022-12-14T11:57:54.467Z,2.17
2022-12-14T12:03:19.444Z,1.70
2022-12-14T12:08:28.976Z,1.35
2022-12-14T12:13:40.543Z,1.58
2022-12-14T12:18:54.683Z,1.70
2022-12-14T12:24:17.820Z,1.33
2022-12-14T12:29:28.482Z,1.40
2022-12-14T12:34:41.998Z,1.33
2022-12-14T12:39:49.089Z,1.48
2022-12-14T12:44:58.388Z,1.30
2022-12-14T12:50:04.979Z,1.55
2022-12-14T12:55:19.475Z,1.80
2022-12-14T13:00:26.866Z,1.60
2022-12-14T13:05:47.585Z,1.67
2022-12-14T13:16:24.623Z,1.23
2022-12-14T13:21:37.494Z,1.38
2022-12-14T13:27:17.967Z,1.27
2022-12-14T13:32:41.618Z,0.93
2022-12-14T13:37:52.738Z,1.65
2022-12-14T13:43:24.603Z,2.08
2022-12-14T13:48:37.514Z,1.83
2022-12-14T13:53:48.241Z,2.13
2022-12-14T13:58:54.623Z,1.73
2022-12-14T14:04:21.323Z,2.17
2022-12-14T14:09:26.148Z,1.65
2022-12-14T14:14:47.785Z,1.95
2022-12-14T14:25:12.996Z,1.77
2022-12-14T14:30:37.300Z,1.57
2022-12-14T14:35:40.320Z,2.22
2022-12-14T14:41:15.284Z,1.80
2022-12-14T14:46:19.181Z,1.45
2022-12-14T14:51:26.873Z,1.70
2022-12-14T14:56:37.600Z,1.70
2022-12-14T15:01:45.466Z,1.50
2022-12-14T15:06:50.498Z,1.70
2022-12-14T15:12:01.427Z,1.50
2022-12-14T15:17:20.987Z,1.73
2022-12-14T15:22:44.278Z,1.83
2022-12-14T15:27:47.875Z,2.30
2022-12-14T15:33:09.421Z,2.10
2022-12-14T15:38:26.112Z,2.00
2022-12-14T15:43:28.774Z,1.90
2022-12-14T15:48:35.545Z,2.15
2022-12-14T15:53:50.165Z,2.05
2022-12-14T15:58:53.507Z,1.77
2022-12-14T16:03:58.955Z,1.45
2022-12-14T16:09:19.763Z,1.50
2022-12-14T16:14:58.884Z,1.83
2022-12-14T16:20:27.692Z,2.08
2022-12-14T16:25:31.705Z,2.22
2022-12-14T16:30:34.152Z,2.22
2022-12-14T16:35:38.052Z,2.58
2022-12-14T16:40:44.077Z,2.80
2022-12-14T16:46:11.410Z,2.40
2022-12-14T16:51:37.951Z,2.47
2022-12-14T16:56:45.505Z,2.95
2022-12-14T17:01:50.082Z,2.33
2022-12-14T17:06:54.846Z,1.92
2022-12-14T17:12:09.930Z,2.40
2022-12-14T17:17:18.104Z,2.17
2022-12-14T17:22:30.175Z,1.58
2022-12-14T17:27:32.359Z,1.70
2022-12-14T17:32:34.950Z,2.30
2022-12-14T17:37:37.090Z,2.33
2022-12-14T17:42:40.463Z,1.77
2022-12-14T17:47:42.502Z,2.00
2022-12-14T17:52:45.114Z,1.55
2022-12-14T17:57:48.485Z,1.45
2022-12-14T18:02:51.741Z,1.05
2022-12-14T18:07:54.021Z,1.35
2022-12-14T18:12:57.179Z,1.73
2022-12-14T18:17:59.420Z,1.05
2022-12-14T18:23:01.719Z,1.40
2022-12-14T18:28:06.176Z,1.15
2022-12-14T18:33:16.800Z,1.15
2022-12-14T18:38:19.435Z,1.70
2022-12-14T18:43:24.426Z,1.98
2022-12-14T18:48:26.537Z,1.67
2022-12-14T18:53:29.349Z,1.90
2022-12-14T18:58:31.666Z,2.28
2022-12-14T19:03:35.477Z,1.90
2022-12-14T19:08:38.346Z,1.70
2022-12-14T19:13:40.438Z,2.40
2022-12-14T19:18:45.371Z,2.20
2022-12-14T19:23:47.560Z,2.28
2022-12-14T19:28:51.287Z,2.35
2022-12-14T19:33:54.879Z,2.55
2022-12-14T19:38:57.103Z,2.08
2022-12-14T19:43:59.835Z,1.88
2022-12-14T19:49:02.104Z,2.85
2022-12-14T19:54:06.170Z,2.55
2022-12-14T19:59:08.561Z,2.47
2022-12-14T20:04:10.943Z,2.42
2022-12-14T20:09:15.338Z,2.65
2022-12-14T20:14:17.878Z,2.88
2022-12-14T20:19:20.436Z,2.05
2022-12-14T20:24:22.683Z,2.50
2022-12-14T20:29:25.205Z,2.47
2022-12-14T20:34:29.097Z,1.90
2022-12-14T20:39:31.166Z,1.85
2022-12-14T20:44:33.304Z,1.88
2022-12-14T20:49:35.665Z,1.20
2022-12-14T20:54:37.786Z,1.83
2022-12-14T20:59:39.980Z,2.03
2022-12-14T21:04:42.109Z,1.63
2022-12-14T21:09:44.212Z,2.15
2022-12-14T21:14:47.963Z,1.90
2022-12-14T21:19:51.394Z,2.20
2022-12-14T21:25:02.984Z,1.35
2022-12-14T21:30:11.038Z,2.72
2022-12-14T21:35:17.639Z,2.40
2022-12-14T21:40:39.663Z,2.58
2022-12-14T21:45:41.756Z,2.75
2022-12-14T21:50:45.424Z,2.58
2022-12-14T21:55:51.755Z,3.13
2022-12-14T22:00:53.853Z,2.42
2022-12-14T22:05:56.322Z,2.75
2022-12-14T22:11:02.852Z,2.60
2022-12-14T22:16:06.479Z,2.45
2022-12-14T22:21:08.707Z,2.58
2022-12-14T22:26:10.743Z,2.55
2022-12-14T22:31:12.893Z,2.38
2022-12-14T22:36:15.308Z,2.72
2022-12-14T22:41:18.707Z,3.00
2022-12-14T22:46:21.000Z,3.13
2022-12-14T22:51:23.405Z,2.80
2022-12-14T22:56:43.490Z,3.22
2022-12-14T23:01:49.622Z,3.20
2022-12-14T23:06:51.852Z,3.50
2022-12-14T23:12:13.427Z,3.65
2022-12-14T23:17:33.942Z,3.38
2022-12-14T23:22:55.076Z,2.60
2022-12-14T23:28:15.550Z,3.58
2022-12-14T23:33:36.221Z,3.70
2022-12-14T23:38:56.657Z,4.53
2022-12-14T23:44:17.351Z,3.50
2022-12-14T23:49:37.782Z,3.75
2022-12-14T23:54:58.188Z,4.40
